KVOK/VOK METAR and TAF weather

Enter ICAO airport designator
Station Type Date Time Source
KVOK METAR 2021/07/30 08:11 UTC NOAA

KVOK 300811Z AUTO 00000KT 9SM BKN017 15/14 A3015 RMK AO2 BKN V FEW SLP210


Station Type Date Time Source
KVOK Decoded METAR 2021/07/30 08:11 UTC NOAA

Volk / Camp Douglas, WI, United States (KVOK) 43-56N 090-16W
Jul 30, 2021 - 04:11 AM EDT / 2021.07.30 0811 UTC
Wind: Calm:0
Visibility: 9 mile(s):0
Sky conditions: mostly cloudy
Temperature: 59 F (15 C)
Dew Point: 57 F (14 C)
Relative Humidity: 93%
Pressure (altimeter): 30.15 in. Hg (1020 hPa)
ob: KVOK 300811Z AUTO 00000KT 9SM BKN017 15/14 A3015 RMK AO2 BKN V FEW SLP210
cycle: 8

Station Type Date Time Source
KVOK TAF 2021/07/29 09:03 UTC NOAA

TAF TAF KVOK 290900Z 2909/3015 28006KT 8000 BR SCT020 SCT050 QNH2984INS
BECMG 2912/2913 35012KT 9999 NSW SCT035 QNH2988INS
BECMG 2923/2924 VRB06KT 9999 SCT230 QNH3002INS TX28/2921Z TN14/3008Z LAST NO
AMDS AFT 2909 NEXT 3009

Example: see airport list